sensor_id;sensor_type;location;lat;lon;timestamp;P1;durP1;ratioP1;P2;durP2;ratioP2
78382;SDS011;67668;52.294;4.692;2023-07-20T00:01:11;2.83;;;0.23;;
78382;SDS011;67668;52.294;4.692;2023-07-20T00:03:37;0.75;;;0.50;;
78382;SDS011;67668;52.294;4.692;2023-07-20T00:06:02;1.52;;;0.40;;
78382;SDS011;67668;52.294;4.692;2023-07-20T00:08:29;2.58;;;0.50;;
78382;SDS011;67668;52.294;4.692;2023-07-20T00:10:55;0.75;;;0.43;;
78382;SDS011;67668;52.294;4.692;2023-07-20T00:13:20;0.73;;;0.40;;
78382;SDS011;67668;52.294;4.692;2023-07-20T00:15:46;0.77;;;0.50;;
78382;SDS011;67668;52.294;4.692;2023-07-20T00:18:12;1.08;;;0.43;;
78382;SDS011;67668;52.294;4.692;2023-07-20T00:20:37;1.88;;;0.50;;
78382;SDS011;67668;52.294;4.692;2023-07-20T00:23:03;0.70;;;0.40;;
78382;SDS011;67668;52.294;4.692;2023-07-20T00:25:28;0.70;;;0.30;;
78382;SDS011;67668;52.294;4.692;2023-07-20T00:27:54;1.13;;;0.40;;
78382;SDS011;67668;52.294;4.692;2023-07-20T00:30:19;1.55;;;0.40;;
78382;SDS011;67668;52.294;4.692;2023-07-20T00:32:45;1.45;;;0.40;;
78382;SDS011;67668;52.294;4.692;2023-07-20T00:35:11;0.68;;;0.38;;
78382;SDS011;67668;52.294;4.692;2023-07-20T00:37:37;3.55;;;0.50;;
78382;SDS011;67668;52.294;4.692;2023-07-20T00:40:03;1.38;;;0.22;;
78382;SDS011;67668;52.294;4.692;2023-07-20T00:42:29;2.13;;;0.40;;
78382;SDS011;67668;52.294;4.692;2023-07-20T00:44:55;1.90;;;0.60;;
78382;SDS011;67668;52.294;4.692;2023-07-20T00:47:20;1.20;;;0.50;;
78382;SDS011;67668;52.294;4.692;2023-07-20T00:49:46;1.20;;;0.22;;
78382;SDS011;67668;52.294;4.692;2023-07-20T00:52:12;1.65;;;0.40;;
78382;SDS011;67668;52.294;4.692;2023-07-20T00:54:39;1.10;;;0.40;;
78382;SDS011;67668;52.294;4.692;2023-07-20T00:57:06;0.77;;;0.30;;
78382;SDS011;67668;52.294;4.692;2023-07-20T00:59:32;0.68;;;0.20;;
78382;SDS011;67668;52.294;4.692;2023-07-20T01:01:59;0.93;;;0.40;;
78382;SDS011;67668;52.294;4.692;2023-07-20T01:04:24;0.80;;;0.35;;
78382;SDS011;67668;52.294;4.692;2023-07-20T01:06:53;1.08;;;0.40;;
78382;SDS011;67668;52.294;4.692;2023-07-20T01:09:31;0.85;;;0.35;;
78382;SDS011;67668;52.294;4.692;2023-07-20T01:12:06;1.20;;;0.40;;
78382;SDS011;67668;52.294;4.692;2023-07-20T01:14:34;1.77;;;0.40;;
78382;SDS011;67668;52.294;4.692;2023-07-20T01:17:00;3.15;;;0.40;;
78382;SDS011;67668;52.294;4.692;2023-07-20T01:19:25;0.47;;;0.30;;
78382;SDS011;67668;52.294;4.692;2023-07-20T01:21:53;0.90;;;0.40;;
78382;SDS011;67668;52.294;4.692;2023-07-20T01:27:10;1.65;;;0.40;;
78382;SDS011;67668;52.294;4.692;2023-07-20T01:33:01;1.70;;;0.30;;
78382;SDS011;67668;52.294;4.692;2023-07-20T01:35:28;0.90;;;0.40;;
78382;SDS011;67668;52.294;4.692;2023-07-20T01:37:55;1.10;;;0.47;;
78382;SDS011;67668;52.294;4.692;2023-07-20T01:40:22;0.60;;;0.30;;
78382;SDS011;67668;52.294;4.692;2023-07-20T01:42:50;0.73;;;0.40;;
78382;SDS011;67668;52.294;4.692;2023-07-20T01:45:16;2.70;;;0.40;;
78382;SDS011;67668;52.294;4.692;2023-07-20T01:47:42;0.80;;;0.20;;
78382;SDS011;67668;52.294;4.692;2023-07-20T01:50:07;1.38;;;0.30;;
78382;SDS011;67668;52.294;4.692;2023-07-20T01:52:33;1.02;;;0.47;;
78382;SDS011;67668;52.294;4.692;2023-07-20T01:54:59;1.33;;;0.60;;
78382;SDS011;67668;52.294;4.692;2023-07-20T01:57:24;5.40;;;0.63;;
78382;SDS011;67668;52.294;4.692;2023-07-20T01:59:50;1.80;;;0.55;;
78382;SDS011;67668;52.294;4.692;2023-07-20T02:02:15;1.08;;;0.47;;
78382;SDS011;67668;52.294;4.692;2023-07-20T02:04:40;1.53;;;0.50;;
78382;SDS011;67668;52.294;4.692;2023-07-20T02:07:06;0.98;;;0.50;;
78382;SDS011;67668;52.294;4.692;2023-07-20T02:09:31;1.03;;;0.47;;
78382;SDS011;67668;52.294;4.692;2023-07-20T02:11:57;1.27;;;0.43;;
78382;SDS011;67668;52.294;4.692;2023-07-20T02:14:22;0.95;;;0.40;;
78382;SDS011;67668;52.294;4.692;2023-07-20T02:16:48;1.90;;;0.37;;
78382;SDS011;67668;52.294;4.692;2023-07-20T02:19:17;2.65;;;0.70;;
78382;SDS011;67668;52.294;4.692;2023-07-20T02:21:44;1.30;;;0.60;;
78382;SDS011;67668;52.294;4.692;2023-07-20T02:24:09;2.33;;;0.95;;
78382;SDS011;67668;52.294;4.692;2023-07-20T02:26:35;2.10;;;1.10;;
78382;SDS011;67668;52.294;4.692;2023-07-20T02:29:00;2.15;;;1.27;;
78382;SDS011;67668;52.294;4.692;2023-07-20T02:31:25;3.42;;;1.23;;
78382;SDS011;67668;52.294;4.692;2023-07-20T02:33:51;4.13;;;1.23;;
78382;SDS011;67668;52.294;4.692;2023-07-20T02:36:16;3.22;;;1.15;;
78382;SDS011;67668;52.294;4.692;2023-07-20T02:38:42;5.35;;;1.52;;
78382;SDS011;67668;52.294;4.692;2023-07-20T02:41:07;1.80;;;1.25;;
78382;SDS011;67668;52.294;4.692;2023-07-20T02:43:33;2.05;;;1.42;;
78382;SDS011;67668;52.294;4.692;2023-07-20T02:45:58;2.30;;;1.58;;
78382;SDS011;67668;52.294;4.692;2023-07-20T02:48:24;2.55;;;1.58;;
78382;SDS011;67668;52.294;4.692;2023-07-20T02:50:49;2.65;;;1.73;;
78382;SDS011;67668;52.294;4.692;2023-07-20T02:53:16;2.45;;;1.30;;
78382;SDS011;67668;52.294;4.692;2023-07-20T02:55:42;2.03;;;1.50;;
78382;SDS011;67668;52.294;4.692;2023-07-20T02:58:07;2.35;;;1.40;;
78382;SDS011;67668;52.294;4.692;2023-07-20T03:00:33;2.28;;;1.23;;
78382;SDS011;67668;52.294;4.692;2023-07-20T03:02:58;2.88;;;1.33;;
78382;SDS011;67668;52.294;4.692;2023-07-20T03:05:24;2.45;;;1.40;;
78382;SDS011;67668;52.294;4.692;2023-07-20T03:07:50;1.95;;;1.00;;
78382;SDS011;67668;52.294;4.692;2023-07-20T03:10:16;1.35;;;1.08;;
78382;SDS011;67668;52.294;4.692;2023-07-20T03:12:41;1.58;;;1.02;;
78382;SDS011;67668;52.294;4.692;2023-07-20T03:15:07;2.63;;;1.05;;
78382;SDS011;67668;52.294;4.692;2023-07-20T03:17:33;1.95;;;0.85;;
78382;SDS011;67668;52.294;4.692;2023-07-20T03:19:58;2.70;;;0.97;;
78382;SDS011;67668;52.294;4.692;2023-07-20T03:22:24;1.30;;;0.90;;
78382;SDS011;67668;52.294;4.692;2023-07-20T03:24:50;2.00;;;0.98;;
78382;SDS011;67668;52.294;4.692;2023-07-20T03:27:16;1.98;;;1.00;;
78382;SDS011;67668;52.294;4.692;2023-07-20T03:29:41;1.97;;;1.10;;
78382;SDS011;67668;52.294;4.692;2023-07-20T03:32:07;2.00;;;1.20;;
78382;SDS011;67668;52.294;4.692;2023-07-20T03:34:32;1.60;;;1.17;;
78382;SDS011;67668;52.294;4.692;2023-07-20T03:36:58;2.00;;;0.98;;
78382;SDS011;67668;52.294;4.692;2023-07-20T03:39:24;2.65;;;1.20;;
78382;SDS011;67668;52.294;4.692;2023-07-20T03:41:49;3.33;;;1.17;;
78382;SDS011;67668;52.294;4.692;2023-07-20T03:44:15;1.40;;;0.80;;
78382;SDS011;67668;52.294;4.692;2023-07-20T03:46:40;3.63;;;1.20;;
78382;SDS011;67668;52.294;4.692;2023-07-20T03:49:06;1.27;;;0.63;;
78382;SDS011;67668;52.294;4.692;2023-07-20T03:51:31;2.28;;;1.05;;
78382;SDS011;67668;52.294;4.692;2023-07-20T03:53:59;2.22;;;0.85;;
78382;SDS011;67668;52.294;4.692;2023-07-20T03:56:24;1.58;;;1.02;;
78382;SDS011;67668;52.294;4.692;2023-07-20T03:58:51;2.88;;;1.10;;
78382;SDS011;67668;52.294;4.692;2023-07-20T04:01:16;1.95;;;1.08;;
78382;SDS011;67668;52.294;4.692;2023-07-20T04:03:42;1.60;;;0.93;;
78382;SDS011;67668;52.294;4.692;2023-07-20T04:06:08;1.83;;;1.00;;
78382;SDS011;67668;52.294;4.692;2023-07-20T04:08:33;1.15;;;0.82;;
78382;SDS011;67668;52.294;4.692;2023-07-20T04:11:01;4.68;;;0.90;;
78382;SDS011;67668;52.294;4.692;2023-07-20T04:13:27;1.95;;;1.10;;
78382;SDS011;67668;52.294;4.692;2023-07-20T04:15:53;1.17;;;0.90;;
78382;SDS011;67668;52.294;4.692;2023-07-20T04:18:18;2.67;;;1.20;;
78382;SDS011;67668;52.294;4.692;2023-07-20T04:20:45;3.03;;;0.80;;
78382;SDS011;67668;52.294;4.692;2023-07-20T04:23:10;3.78;;;1.45;;
78382;SDS011;67668;52.294;4.692;2023-07-20T04:25:35;2.00;;;0.90;;
78382;SDS011;67668;52.294;4.692;2023-07-20T04:28:04;2.72;;;1.08;;
78382;SDS011;67668;52.294;4.692;2023-07-20T04:30:34;1.52;;;1.13;;
78382;SDS011;67668;52.294;4.692;2023-07-20T04:33:01;2.28;;;0.88;;
78382;SDS011;67668;52.294;4.692;2023-07-20T04:38:15;2.15;;;1.23;;
78382;SDS011;67668;52.294;4.692;2023-07-20T04:40:43;1.38;;;0.90;;
78382;SDS011;67668;52.294;4.692;2023-07-20T04:43:12;2.13;;;1.08;;
78382;SDS011;67668;52.294;4.692;2023-07-20T04:45:41;3.00;;;1.45;;
78382;SDS011;67668;52.294;4.692;2023-07-20T04:48:09;2.55;;;1.10;;
78382;SDS011;67668;52.294;4.692;2023-07-20T04:50:37;4.20;;;1.05;;
78382;SDS011;67668;52.294;4.692;2023-07-20T04:53:03;2.03;;;1.15;;
78382;SDS011;67668;52.294;4.692;2023-07-20T04:55:29;2.38;;;1.00;;
78382;SDS011;67668;52.294;4.692;2023-07-20T04:57:54;2.38;;;1.00;;
78382;SDS011;67668;52.294;4.692;2023-07-20T05:00:20;1.92;;;1.08;;
78382;SDS011;67668;52.294;4.692;2023-07-20T05:02:46;2.42;;;1.00;;
78382;SDS011;67668;52.294;4.692;2023-07-20T05:05:14;2.53;;;1.45;;
78382;SDS011;67668;52.294;4.692;2023-07-20T05:07:40;2.70;;;1.10;;
78382;SDS011;67668;52.294;4.692;2023-07-20T05:10:05;3.67;;;1.50;;
78382;SDS011;67668;52.294;4.692;2023-07-20T05:12:31;2.10;;;1.15;;
78382;SDS011;67668;52.294;4.692;2023-07-20T05:14:56;2.60;;;0.77;;
78382;SDS011;67668;52.294;4.692;2023-07-20T05:17:22;2.13;;;1.23;;
78382;SDS011;67668;52.294;4.692;2023-07-20T05:19:47;1.55;;;1.00;;
78382;SDS011;67668;52.294;4.692;2023-07-20T05:22:14;2.10;;;1.27;;
78382;SDS011;67668;52.294;4.692;2023-07-20T05:24:39;1.60;;;1.23;;
78382;SDS011;67668;52.294;4.692;2023-07-20T05:27:05;2.17;;;1.15;;
78382;SDS011;67668;52.294;4.692;2023-07-20T05:29:30;3.45;;;1.70;;
78382;SDS011;67668;52.294;4.692;2023-07-20T05:32:04;2.45;;;1.35;;
78382;SDS011;67668;52.294;4.692;2023-07-20T05:34:31;2.10;;;0.95;;
78382;SDS011;67668;52.294;4.692;2023-07-20T05:36:57;3.25;;;1.95;;
78382;SDS011;67668;52.294;4.692;2023-07-20T05:39:23;2.45;;;1.50;;
78382;SDS011;67668;52.294;4.692;2023-07-20T05:41:48;2.78;;;1.77;;
78382;SDS011;67668;52.294;4.692;2023-07-20T05:44:14;3.33;;;1.63;;
78382;SDS011;67668;52.294;4.692;2023-07-20T05:46:39;3.83;;;1.63;;
78382;SDS011;67668;52.294;4.692;2023-07-20T05:49:05;1.70;;;0.80;;
78382;SDS011;67668;52.294;4.692;2023-07-20T05:51:30;2.05;;;1.38;;
78382;SDS011;67668;52.294;4.692;2023-07-20T05:53:55;1.60;;;1.10;;
78382;SDS011;67668;52.294;4.692;2023-07-20T05:56:21;3.35;;;1.48;;
78382;SDS011;67668;52.294;4.692;2023-07-20T05:58:46;1.93;;;1.37;;
78382;SDS011;67668;52.294;4.692;2023-07-20T06:01:12;1.88;;;1.58;;
78382;SDS011;67668;52.294;4.692;2023-07-20T06:03:37;2.05;;;1.50;;
78382;SDS011;67668;52.294;4.692;2023-07-20T06:06:03;2.35;;;1.60;;
78382;SDS011;67668;52.294;4.692;2023-07-20T06:08:31;2.20;;;1.45;;
78382;SDS011;67668;52.294;4.692;2023-07-20T06:10:57;2.58;;;1.80;;
78382;SDS011;67668;52.294;4.692;2023-07-20T06:13:22;3.63;;;1.73;;
78382;SDS011;67668;52.294;4.692;2023-07-20T06:15:48;2.05;;;1.42;;
78382;SDS011;67668;52.294;4.692;2023-07-20T06:18:14;4.75;;;1.23;;
78382;SDS011;67668;52.294;4.692;2023-07-20T06:20:39;1.60;;;0.93;;
78382;SDS011;67668;52.294;4.692;2023-07-20T06:23:05;5.53;;;1.65;;
78382;SDS011;67668;52.294;4.692;2023-07-20T06:25:31;2.63;;;1.35;;
78382;SDS011;67668;52.294;4.692;2023-07-20T06:27:56;7.55;;;1.38;;
78382;SDS011;67668;52.294;4.692;2023-07-20T06:30:22;3.50;;;1.55;;
78382;SDS011;67668;52.294;4.692;2023-07-20T06:32:47;2.10;;;1.38;;
78382;SDS011;67668;52.294;4.692;2023-07-20T06:35:13;1.25;;;0.90;;
78382;SDS011;67668;52.294;4.692;2023-07-20T06:37:39;2.47;;;0.75;;
78382;SDS011;67668;52.294;4.692;2023-07-20T06:40:04;1.43;;;0.70;;
78382;SDS011;67668;52.294;4.692;2023-07-20T06:42:31;2.70;;;0.85;;
78382;SDS011;67668;52.294;4.692;2023-07-20T06:44:57;2.70;;;0.60;;
78382;SDS011;67668;52.294;4.692;2023-07-20T06:47:22;2.42;;;0.63;;
78382;SDS011;67668;52.294;4.692;2023-07-20T06:49:48;2.67;;;0.75;;
78382;SDS011;67668;52.294;4.692;2023-07-20T06:52:14;1.92;;;0.70;;
78382;SDS011;67668;52.294;4.692;2023-07-20T06:54:39;0.70;;;0.30;;
78382;SDS011;67668;52.294;4.692;2023-07-20T06:57:05;1.33;;;0.50;;
78382;SDS011;67668;52.294;4.692;2023-07-20T06:59:30;1.42;;;0.50;;
78382;SDS011;67668;52.294;4.692;2023-07-20T07:01:56;0.70;;;0.35;;
78382;SDS011;67668;52.294;4.692;2023-07-20T07:04:21;2.03;;;0.57;;
78382;SDS011;67668;52.294;4.692;2023-07-20T07:06:47;1.48;;;0.30;;
78382;SDS011;67668;52.294;4.692;2023-07-20T07:09:13;0.40;;;0.22;;
78382;SDS011;67668;52.294;4.692;2023-07-20T07:11:38;1.85;;;0.40;;
78382;SDS011;67668;52.294;4.692;2023-07-20T07:14:04;1.65;;;0.30;;
78382;SDS011;67668;52.294;4.692;2023-07-20T07:16:29;1.30;;;0.30;;
78382;SDS011;67668;52.294;4.692;2023-07-20T07:18:55;1.47;;;0.60;;
78382;SDS011;67668;52.294;4.692;2023-07-20T07:21:20;0.70;;;0.30;;
78382;SDS011;67668;52.294;4.692;2023-07-20T07:23:46;1.20;;;0.20;;
78382;SDS011;67668;52.294;4.692;2023-07-20T07:26:12;1.55;;;0.20;;
78382;SDS011;67668;52.294;4.692;2023-07-20T07:28:37;3.60;;;0.30;;
78382;SDS011;67668;52.294;4.692;2023-07-20T07:31:05;1.05;;;0.40;;
78382;SDS011;67668;52.294;4.692;2023-07-20T07:33:31;1.60;;;0.50;;
78382;SDS011;67668;52.294;4.692;2023-07-20T07:35:57;2.33;;;0.32;;
78382;SDS011;67668;52.294;4.692;2023-07-20T07:38:22;1.15;;;0.30;;
78382;SDS011;67668;52.294;4.692;2023-07-20T07:40:48;0.50;;;0.30;;
78382;SDS011;67668;52.294;4.692;2023-07-20T07:43:13;1.17;;;0.27;;
78382;SDS011;67668;52.294;4.692;2023-07-20T07:45:39;0.82;;;0.30;;
78382;SDS011;67668;52.294;4.692;2023-07-20T07:48:05;0.93;;;0.30;;
78382;SDS011;67668;52.294;4.692;2023-07-20T07:50:31;2.83;;;0.20;;
78382;SDS011;67668;52.294;4.692;2023-07-20T07:52:57;0.22;;;0.10;;
78382;SDS011;67668;52.294;4.692;2023-07-20T07:55:23;1.70;;;0.20;;
78382;SDS011;67668;52.294;4.692;2023-07-20T07:57:49;1.48;;;0.50;;
78382;SDS011;67668;52.294;4.692;2023-07-20T08:00:15;0.38;;;0.20;;
78382;SDS011;67668;52.294;4.692;2023-07-20T08:02:44;1.15;;;0.32;;
78382;SDS011;67668;52.294;4.692;2023-07-20T08:05:12;0.93;;;0.20;;
78382;SDS011;67668;52.294;4.692;2023-07-20T08:07:38;0.98;;;0.40;;
78382;SDS011;67668;52.294;4.692;2023-07-20T08:10:04;0.80;;;0.30;;
78382;SDS011;67668;52.294;4.692;2023-07-20T08:12:31;1.13;;;0.50;;
78382;SDS011;67668;52.294;4.692;2023-07-20T08:14:57;1.45;;;0.30;;
78382;SDS011;67668;52.294;4.692;2023-07-20T08:17:22;2.35;;;0.45;;
78382;SDS011;67668;52.294;4.692;2023-07-20T08:19:48;0.40;;;0.20;;
78382;SDS011;67668;52.294;4.692;2023-07-20T08:22:13;0.90;;;0.20;;
78382;SDS011;67668;52.294;4.692;2023-07-20T08:24:42;0.80;;;0.30;;
78382;SDS011;67668;52.294;4.692;2023-07-20T08:27:08;0.60;;;0.22;;
78382;SDS011;67668;52.294;4.692;2023-07-20T08:29:35;1.58;;;0.30;;
78382;SDS011;67668;52.294;4.692;2023-07-20T08:32:01;1.15;;;0.30;;
78382;SDS011;67668;52.294;4.692;2023-07-20T08:34:26;0.35;;;0.15;;
78382;SDS011;67668;52.294;4.692;2023-07-20T08:36:52;1.48;;;0.30;;
78382;SDS011;67668;52.294;4.692;2023-07-20T08:39:17;1.77;;;0.20;;
78382;SDS011;67668;52.294;4.692;2023-07-20T08:41:43;0.75;;;0.20;;
78382;SDS011;67668;52.294;4.692;2023-07-20T08:44:09;2.40;;;0.20;;
78382;SDS011;67668;52.294;4.692;2023-07-20T08:46:35;0.70;;;0.20;;
78382;SDS011;67668;52.294;4.692;2023-07-20T08:49:03;0.38;;;0.15;;
78382;SDS011;67668;52.294;4.692;2023-07-20T08:51:30;0.68;;;0.40;;
78382;SDS011;67668;52.294;4.692;2023-07-20T08:53:56;0.70;;;0.22;;
78382;SDS011;67668;52.294;4.692;2023-07-20T08:56:22;0.90;;;0.20;;
78382;SDS011;67668;52.294;4.692;2023-07-20T08:58:49;1.42;;;0.17;;
78382;SDS011;67668;52.294;4.692;2023-07-20T09:01:19;0.45;;;0.20;;
78382;SDS011;67668;52.294;4.692;2023-07-20T09:03:45;2.35;;;0.20;;
78382;SDS011;67668;52.294;4.692;2023-07-20T09:06:11;0.50;;;0.25;;
78382;SDS011;67668;52.294;4.692;2023-07-20T09:08:37;2.45;;;0.35;;
78382;SDS011;67668;52.294;4.692;2023-07-20T09:11:04;1.42;;;0.20;;
78382;SDS011;67668;52.294;4.692;2023-07-20T09:13:29;0.22;;;0.13;;
78382;SDS011;67668;52.294;4.692;2023-07-20T09:15:54;0.60;;;0.20;;
78382;SDS011;67668;52.294;4.692;2023-07-20T09:18:27;0.68;;;0.20;;
78382;SDS011;67668;52.294;4.692;2023-07-20T09:21:03;1.70;;;0.20;;
78382;SDS011;67668;52.294;4.692;2023-07-20T09:23:36;0.57;;;0.20;;
78382;SDS011;67668;52.294;4.692;2023-07-20T09:26:11;0.35;;;0.17;;
78382;SDS011;67668;52.294;4.692;2023-07-20T09:28:58;1.60;;;0.35;;
78382;SDS011;67668;52.294;4.692;2023-07-20T09:31:22;1.05;;;0.30;;
78382;SDS011;67668;52.294;4.692;2023-07-20T09:33:50;1.07;;;0.20;;
78382;SDS011;67668;52.294;4.692;2023-07-20T09:36:17;0.88;;;0.28;;
78382;SDS011;67668;52.294;4.692;2023-07-20T09:38:43;1.23;;;0.10;;
78382;SDS011;67668;52.294;4.692;2023-07-20T09:41:12;2.03;;;0.20;;
78382;SDS011;67668;52.294;4.692;2023-07-20T09:43:38;0.32;;;0.10;;
78382;SDS011;67668;52.294;4.692;2023-07-20T09:46:04;0.57;;;0.30;;
78382;SDS011;67668;52.294;4.692;2023-07-20T09:48:30;0.75;;;0.30;;
78382;SDS011;67668;52.294;4.692;2023-07-20T09:50:55;1.20;;;0.30;;
78382;SDS011;67668;52.294;4.692;2023-07-20T09:53:21;0.80;;;0.30;;
78382;SDS011;67668;52.294;4.692;2023-07-20T09:55:49;0.68;;;0.28;;
78382;SDS011;67668;52.294;4.692;2023-07-20T09:58:15;1.33;;;0.30;;
78382;SDS011;67668;52.294;4.692;2023-07-20T10:00:41;0.68;;;0.20;;
78382;SDS011;67668;52.294;4.692;2023-07-20T10:03:20;1.80;;;0.50;;
78382;SDS011;67668;52.294;4.692;2023-07-20T10:05:51;1.67;;;0.30;;
78382;SDS011;67668;52.294;4.692;2023-07-20T10:08:23;0.77;;;0.15;;
78382;SDS011;67668;52.294;4.692;2023-07-20T10:10:50;2.00;;;0.20;;
78382;SDS011;67668;52.294;4.692;2023-07-20T10:13:21;2.60;;;0.28;;
78382;SDS011;67668;52.294;4.692;2023-07-20T10:15:53;1.48;;;0.45;;
78382;SDS011;67668;52.294;4.692;2023-07-20T10:18:30;0.20;;;0.10;;
78382;SDS011;67668;52.294;4.692;2023-07-20T10:21:19;1.17;;;0.47;;
78382;SDS011;67668;52.294;4.692;2023-07-20T10:23:48;0.93;;;0.57;;
78382;SDS011;67668;52.294;4.692;2023-07-20T10:26:15;0.65;;;0.20;;
78382;SDS011;67668;52.294;4.692;2023-07-20T10:28:41;0.75;;;0.15;;
78382;SDS011;67668;52.294;4.692;2023-07-20T10:31:11;0.63;;;0.20;;
78382;SDS011;67668;52.294;4.692;2023-07-20T10:33:39;2.10;;;0.20;;
78382;SDS011;67668;52.294;4.692;2023-07-20T10:36:06;2.05;;;0.20;;
78382;SDS011;67668;52.294;4.692;2023-07-20T10:38:41;0.10;;;0.10;;
78382;SDS011;67668;52.294;4.692;2023-07-20T10:41:18;1.08;;;0.20;;
78382;SDS011;67668;52.294;4.692;2023-07-20T10:43:44;0.70;;;0.30;;
78382;SDS011;67668;52.294;4.692;2023-07-20T10:46:10;1.05;;;0.20;;
78382;SDS011;67668;52.294;4.692;2023-07-20T10:48:45;1.33;;;0.20;;
78382;SDS011;67668;52.294;4.692;2023-07-20T10:51:29;0.38;;;0.20;;
78382;SDS011;67668;52.294;4.692;2023-07-20T10:53:58;0.43;;;0.17;;
78382;SDS011;67668;52.294;4.692;2023-07-20T10:56:26;0.68;;;0.40;;
78382;SDS011;67668;52.294;4.692;2023-07-20T10:58:58;1.45;;;0.57;;
78382;SDS011;67668;52.294;4.692;2023-07-20T11:01:28;1.05;;;0.10;;
78382;SDS011;67668;52.294;4.692;2023-07-20T11:03:58;1.65;;;0.10;;
78382;SDS011;67668;52.294;4.692;2023-07-20T11:11:26;0.85;;;0.20;;
78382;SDS011;67668;52.294;4.692;2023-07-20T11:16:32;0.13;;;0.00;;
78382;SDS011;67668;52.294;4.692;2023-07-20T11:19:05;1.17;;;0.20;;
78382;SDS011;67668;52.294;4.692;2023-07-20T11:21:38;0.40;;;0.10;;
78382;SDS011;67668;52.294;4.692;2023-07-20T11:24:06;0.52;;;0.20;;
78382;SDS011;67668;52.294;4.692;2023-07-20T11:29:34;0.20;;;0.20;;
78382;SDS011;67668;52.294;4.692;2023-07-20T11:32:00;0.70;;;0.17;;
78382;SDS011;67668;52.294;4.692;2023-07-20T11:34:29;1.20;;;0.25;;
78382;SDS011;67668;52.294;4.692;2023-07-20T11:36:56;0.80;;;0.28;;
78382;SDS011;67668;52.294;4.692;2023-07-20T11:39:22;0.45;;;0.20;;
78382;SDS011;67668;52.294;4.692;2023-07-20T11:41:50;1.08;;;0.10;;
78382;SDS011;67668;52.294;4.692;2023-07-20T11:44:20;1.00;;;0.20;;
78382;SDS011;67668;52.294;4.692;2023-07-20T11:46:59;0.38;;;0.20;;
78382;SDS011;67668;52.294;4.692;2023-07-20T11:49:35;0.45;;;0.20;;
78382;SDS011;67668;52.294;4.692;2023-07-20T11:52:12;0.35;;;0.15;;
78382;SDS011;67668;52.294;4.692;2023-07-20T11:54:40;1.38;;;0.20;;
78382;SDS011;67668;52.294;4.692;2023-07-20T11:57:07;1.52;;;0.20;;
78382;SDS011;67668;52.294;4.692;2023-07-20T11:59:52;0.60;;;0.20;;
78382;SDS011;67668;52.294;4.692;2023-07-20T12:02:20;0.50;;;0.20;;
78382;SDS011;67668;52.294;4.692;2023-07-20T12:04:47;1.20;;;0.30;;
78382;SDS011;67668;52.294;4.692;2023-07-20T12:07:13;2.47;;;0.40;;
78382;SDS011;67668;52.294;4.692;2023-07-20T12:09:38;1.05;;;0.20;;
78382;SDS011;67668;52.294;4.692;2023-07-20T12:12:09;0.50;;;0.10;;
78382;SDS011;67668;52.294;4.692;2023-07-20T12:14:36;0.30;;;0.10;;
78382;SDS011;67668;52.294;4.692;2023-07-20T12:17:01;1.00;;;0.10;;
78382;SDS011;67668;52.294;4.692;2023-07-20T12:19:27;0.90;;;0.40;;
78382;SDS011;67668;52.294;4.692;2023-07-20T12:21:56;1.02;;;0.20;;
78382;SDS011;67668;52.294;4.692;2023-07-20T12:24:24;1.60;;;0.22;;
78382;SDS011;67668;52.294;4.692;2023-07-20T12:26:55;0.50;;;0.28;;
78382;SDS011;67668;52.294;4.692;2023-07-20T12:29:22;1.38;;;0.20;;
78382;SDS011;67668;52.294;4.692;2023-07-20T12:31:47;0.30;;;0.10;;
78382;SDS011;67668;52.294;4.692;2023-07-20T12:34:13;0.15;;;0.08;;
78382;SDS011;67668;52.294;4.692;2023-07-20T12:36:38;0.80;;;0.40;;
78382;SDS011;67668;52.294;4.692;2023-07-20T12:39:04;0.85;;;0.20;;
78382;SDS011;67668;52.294;4.692;2023-07-20T12:41:30;1.95;;;0.35;;
78382;SDS011;67668;52.294;4.692;2023-07-20T12:43:56;0.45;;;0.10;;
78382;SDS011;67668;52.294;4.692;2023-07-20T12:46:23;0.82;;;0.20;;
78382;SDS011;67668;52.294;4.692;2023-07-20T12:48:49;1.27;;;0.13;;
78382;SDS011;67668;52.294;4.692;2023-07-20T12:51:14;0.57;;;0.20;;
78382;SDS011;67668;52.294;4.692;2023-07-20T12:53:39;0.52;;;0.20;;
78382;SDS011;67668;52.294;4.692;2023-07-20T12:56:05;0.98;;;0.20;;
78382;SDS011;67668;52.294;4.692;2023-07-20T12:58:30;0.50;;;0.10;;
78382;SDS011;67668;52.294;4.692;2023-07-20T13:00:56;0.17;;;0.07;;
78382;SDS011;67668;52.294;4.692;2023-07-20T13:03:22;0.43;;;0.10;;
78382;SDS011;67668;52.294;4.692;2023-07-20T13:05:48;0.30;;;0.10;;
78382;SDS011;67668;52.294;4.692;2023-07-20T13:08:14;0.20;;;0.00;;
78382;SDS011;67668;52.294;4.692;2023-07-20T13:10:40;0.95;;;0.10;;
78382;SDS011;67668;52.294;4.692;2023-07-20T13:13:05;0.70;;;0.22;;
78382;SDS011;67668;52.294;4.692;2023-07-20T13:15:32;0.40;;;0.20;;
78382;SDS011;67668;52.294;4.692;2023-07-20T13:18:05;3.65;;;0.20;;
78382;SDS011;67668;52.294;4.692;2023-07-20T13:20:31;1.17;;;0.38;;
78382;SDS011;67668;52.294;4.692;2023-07-20T13:22:56;0.65;;;0.30;;
78382;SDS011;67668;52.294;4.692;2023-07-20T13:25:21;0.40;;;0.20;;
78382;SDS011;67668;52.294;4.692;2023-07-20T13:27:47;0.28;;;0.10;;
78382;SDS011;67668;52.294;4.692;2023-07-20T13:30:12;0.52;;;0.20;;
78382;SDS011;67668;52.294;4.692;2023-07-20T13:32:42;0.93;;;0.20;;
78382;SDS011;67668;52.294;4.692;2023-07-20T13:35:08;1.00;;;0.13;;
78382;SDS011;67668;52.294;4.692;2023-07-20T13:37:34;1.30;;;0.40;;
78382;SDS011;67668;52.294;4.692;2023-07-20T13:39:59;0.30;;;0.30;;
78382;SDS011;67668;52.294;4.692;2023-07-20T13:42:25;1.17;;;0.20;;
78382;SDS011;67668;52.294;4.692;2023-07-20T13:44:51;0.63;;;0.20;;
78382;SDS011;67668;52.294;4.692;2023-07-20T13:47:16;0.10;;;0.10;;
78382;SDS011;67668;52.294;4.692;2023-07-20T13:49:42;0.30;;;0.10;;
78382;SDS011;67668;52.294;4.692;2023-07-20T13:52:08;0.52;;;0.17;;
78382;SDS011;67668;52.294;4.692;2023-07-20T13:54:34;0.98;;;0.10;;
78382;SDS011;67668;52.294;4.692;2023-07-20T13:56:59;1.27;;;0.22;;
78382;SDS011;67668;52.294;4.692;2023-07-20T13:59:25;1.25;;;0.10;;
78382;SDS011;67668;52.294;4.692;2023-07-20T14:01:50;0.77;;;0.30;;
78382;SDS011;67668;52.294;4.692;2023-07-20T14:04:15;0.63;;;0.10;;
78382;SDS011;67668;52.294;4.692;2023-07-20T14:06:42;0.82;;;0.20;;
78382;SDS011;67668;52.294;4.692;2023-07-20T14:09:07;0.73;;;0.20;;
78382;SDS011;67668;52.294;4.692;2023-07-20T14:11:33;0.15;;;0.10;;
78382;SDS011;67668;52.294;4.692;2023-07-20T14:13:58;2.28;;;0.15;;
78382;SDS011;67668;52.294;4.692;2023-07-20T14:16:24;0.63;;;0.20;;
78382;SDS011;67668;52.294;4.692;2023-07-20T14:18:50;0.40;;;0.17;;
78382;SDS011;67668;52.294;4.692;2023-07-20T14:21:16;0.63;;;0.20;;
78382;SDS011;67668;52.294;4.692;2023-07-20T14:23:44;1.40;;;0.22;;
78382;SDS011;67668;52.294;4.692;2023-07-20T14:26:10;0.77;;;0.20;;
78382;SDS011;67668;52.294;4.692;2023-07-20T14:28:36;0.40;;;0.10;;
78382;SDS011;67668;52.294;4.692;2023-07-20T14:31:01;2.30;;;0.30;;
78382;SDS011;67668;52.294;4.692;2023-07-20T14:33:27;1.88;;;0.35;;
78382;SDS011;67668;52.294;4.692;2023-07-20T14:35:52;0.50;;;0.20;;
78382;SDS011;67668;52.294;4.692;2023-07-20T14:38:17;0.55;;;0.17;;
78382;SDS011;67668;52.294;4.692;2023-07-20T14:40:43;1.10;;;0.50;;
78382;SDS011;67668;52.294;4.692;2023-07-20T14:43:09;1.73;;;0.32;;
78382;SDS011;67668;52.294;4.692;2023-07-20T14:45:35;0.60;;;0.20;;
78382;SDS011;67668;52.294;4.692;2023-07-20T14:48:03;0.47;;;0.15;;
78382;SDS011;67668;52.294;4.692;2023-07-20T14:50:28;0.32;;;0.10;;
78382;SDS011;67668;52.294;4.692;2023-07-20T14:52:54;0.50;;;0.20;;
78382;SDS011;67668;52.294;4.692;2023-07-20T14:55:19;0.52;;;0.20;;
78382;SDS011;67668;52.294;4.692;2023-07-20T14:57:45;0.82;;;0.20;;
78382;SDS011;67668;52.294;4.692;2023-07-20T15:00:10;0.50;;;0.17;;
78382;SDS011;67668;52.294;4.692;2023-07-20T15:02:36;0.52;;;0.20;;
78382;SDS011;67668;52.294;4.692;2023-07-20T15:05:02;0.35;;;0.10;;